Accueil
METAR-TAF:

METAR-TAF

Aéroports :

Base aérienne 702 Avord

Avord, France

latitude: 47-03-12N, longitude: 002-37-57E, altitude: 177 m

Observation

Le bulletin a été fait il y a 16 minutes, à 18:00 UTC
Vent 6 kt de est
Température 10°C
Humidité 82%
Pression 1018 hPa
Visibilité 10 km ou plus
pas de nuages en-dessous de 1500 mètres et pas de cumulonimbus.

METAR: LFOA 261800Z AUTO 10006KT CAVOK 10/07 Q1018 NOSIG

Heure: 19:16 (18:16 UTC)

Prévision

Le bulletin a été fait il y a 4 heures et 16 minutes, à 14:00 UTC
Prévision valable du 26 à 15 UTC au 27 à 15 UTC
Vent 6 kt de est/sud-est
Visibilité 10 km ou plus
pas de nuages en-dessous de 1500 mètres et pas de cumulonimbus.
Temporairement
du 27 à 01 UTC au 27 à 09 UTC
Visibilité: 4000 m
brume

TAF: LFOA 261400Z 2615/2715 12006KT CAVOK TX13/2714Z TN05/2705Z TEMPO 2701/2709 4000 BR

Observations et prévisions météorologiques de plus de 4000 aéroports (messages METAR et TAF).

Les stations disponibles sont représentées par des disques jaunes et rouges sur la carte.

Passer la souris dessus pour voir le nom de la station.

Cliquer dessus pour voir les observations et prévisions météorologiques.

Pour changer de carte: cliquez sur les boutons verts avec une croix noire pour zoomer, sur le bouton vert avec un tiret pour effectuer un zoom arrière, ou sur les flèches vertes pour les cartes adjacentes.


METAR-TAF: